Capitol Logistics 468


KIAD
Washington Dulles International Airport
Dulles, Virginia, US
KHSV
Huntsville International Airport
Huntsville, Alabama, US

Activity Log

Date Flight Route Aircraft Duration
01/18/2020 CPX468 CLTCH2 MAULS Q40 ALEAN VXV RQZ B763 2h 08m

Route Details

Aircraft Information
Primary: Boeing 757-200SF
Backup: Boeing 767-300BDSF
Route Data
Distance: 517nm
Sched. Duration: 1h 54m
Avg. Duration: 2h 08m (+55m)
Times Flown: 1
Recm'd Route: CLTCH2 MAULS Q40 ALEAN VXV RQZ
Planned Altitude: 32,000ft
Origin Wx: KIAD 051519Z 20004KT 10SM SCT014 BKN065 BKN250 26/21 A2993 RMK AO2 T02560211
Dest. Wx: KHSV 051528Z 35006KT 10SM BKN020 BKN049 27/23 A2999 RMK AO2 LTG DSNT W T02720228 $
Notes:

Financial History
Total Freight: 111,152lbs
Average Load: 111,152lbs/flt
Fuel Used: 22,475lbs
Avg. Fuel Used: 22,475lbs/flt
Fuel Expense: $28,993
Avg. Fuel Expense: $28,993
Avg. Fuel Cost: $1.29/lbs
Total Gross Income: $160,281
Pilot Pay: $229
Total Expenses: $17,362
Total Revenue: $113,434
Average Revenue: $160,281.19